Time;durP1;ratioP1;P1;durP2;ratioP2;P2;SDS_P1;SDS_P2;PMS_P1;PMS_P2;Temp;Humidity;BMP_temperature;BMP_pressure;BME280_temperature;BME280_humidity;BME280_pressure;Samples;Min_cycle;Max_cycle;Signal;HPM_P1;HPM_P2
2021/09/27 00:00:22;;;;;;;2.90;1.40;;;;;;;;;;5061825;28;20063;-86
2021/09/27 00:03:08;;;;;;;3.47;1.40;;;;;;;;;;5046682;28;20043;-86
2021/09/27 00:05:52;;;;;;;2.35;1.27;;;;;;;;;;5057868;28;20755;-86
2021/09/27 00:08:37;;;;;;;1.65;1.10;;;;;;;;;;5041800;28;20040;-86
2021/09/27 00:11:23;;;;;;;3.10;1.42;;;;;;;;;;5031655;28;20039;-86
2021/09/27 00:14:08;;;;;;;2.42;1.30;;;;;;;;;;5045455;28;20698;-86
2021/09/27 00:16:52;;;;;;;2.42;1.35;;;;;;;;;;5087288;28;20047;-86
2021/09/27 00:19:37;;;;;;;1.70;1.10;;;;;;;;;;5058284;28;20087;-86
2021/09/27 00:22:23;;;;;;;1.80;1.30;;;;;;;;;;5050878;28;20051;-86
2021/09/27 00:25:08;;;;;;;3.55;1.23;;;;;;;;;;5049314;28;20040;-86
2021/09/27 00:27:53;;;;;;;2.72;1.30;;;;;;;;;;5045260;28;20795;-86
2021/09/27 00:30:38;;;;;;;2.63;1.30;;;;;;;;;;5044756;28;20044;-86
2021/09/27 00:33:22;;;;;;;2.15;1.10;;;;;;;;;;5054754;28;20043;-85
2021/09/27 00:36:07;;;;;;;1.67;1.02;;;;;;;;;;5054152;28;20551;-86
2021/09/27 00:38:52;;;;;;;2.72;1.17;;;;;;;;;;5047610;28;20068;-85
2021/09/27 00:41:36;;;;;;;3.33;1.38;;;;;;;;;;5074059;28;20048;-84
2021/09/27 00:44:21;;;;;;;3.00;1.27;;;;;;;;;;5044963;28;20079;-85
2021/09/27 00:47:05;;;;;;;1.92;1.10;;;;;;;;;;5047194;28;20043;-85
2021/09/27 00:49:50;;;;;;;2.67;1.20;;;;;;;;;;5068021;28;20484;-84
2021/09/27 00:52:34;;;;;;;2.35;1.15;;;;;;;;;;5045096;28;20063;-85
2021/09/27 00:55:20;;;;;;;2.17;1.20;;;;;;;;;;5044476;28;20039;-85
2021/09/27 00:58:04;;;;;;;1.83;1.00;;;;;;;;;;5045280;28;20090;-84
2021/09/27 01:00:49;;;;;;;2.22;1.00;;;;;;;;;;5059142;28;20144;-84
2021/09/27 01:03:33;;;;;;;1.83;1.10;;;;;;;;;;5062440;28;20420;-85
2021/09/27 01:06:24;;;;;;;2.22;1.17;;;;;;;;;;5063292;28;20083;-85
2021/09/27 01:09:21;;;;;;;2.33;1.17;;;;;;;;;;5059652;28;20889;-86
2021/09/27 01:12:19;;;;;;;3.20;1.10;;;;;;;;;;5045405;28;20044;-76
2021/09/27 01:15:20;;;;;;;1.98;1.05;;;;;;;;;;5073164;28;20043;-84
2021/09/27 01:18:13;;;;;;;2.10;1.10;;;;;;;;;;5045296;28;20064;-78
2021/09/27 01:21:17;;;;;;;1.80;1.00;;;;;;;;;;5047751;28;20486;-77
2021/09/27 01:24:20;;;;;;;1.27;0.90;;;;;;;;;;5052680;28;20094;-82
2021/09/27 01:27:05;;;;;;;5.22;1.17;;;;;;;;;;5051523;28;20087;-84
2021/09/27 01:29:59;;;;;;;2.17;1.00;;;;;;;;;;5054326;28;20106;-84
2021/09/27 01:32:44;;;;;;;1.85;1.00;;;;;;;;;;5045417;28;20102;-84
2021/09/27 01:35:31;;;;;;;2.45;1.00;;;;;;;;;;5058887;28;20063;-84
2021/09/27 01:38:22;;;;;;;2.25;1.10;;;;;;;;;;5058343;28;20085;-84
2021/09/27 01:41:28;;;;;;;1.95;1.00;;;;;;;;;;5046594;28;20085;-75
2021/09/27 01:44:14;;;;;;;3.05;1.05;;;;;;;;;;5042523;28;20043;-84
2021/09/27 01:47:00;;;;;;;2.30;1.40;;;;;;;;;;5059548;28;20043;-85
2021/09/27 01:49:51;;;;;;;2.33;1.13;;;;;;;;;;5062331;28;20707;-84
2021/09/27 01:52:47;;;;;;;2.03;1.00;;;;;;;;;;5064468;28;20070;-84
2021/09/27 01:55:35;;;;;;;2.90;1.00;;;;;;;;;;5062300;28;20083;-84
2021/09/27 01:58:25;;;;;;;1.30;1.00;;;;;;;;;;5040792;28;20117;-84
2021/09/27 02:01:15;;;;;;;1.75;0.80;;;;;;;;;;5060201;28;20544;-84
2021/09/27 02:04:02;;;;;;;2.10;0.90;;;;;;;;;;5049706;28;20068;-83
2021/09/27 02:06:50;;;;;;;1.95;0.90;;;;;;;;;;5052118;28;20572;-84
2021/09/27 02:09:41;;;;;;;2.28;1.00;;;;;;;;;;5068423;28;20032;-84
2021/09/27 02:12:26;;;;;;;2.17;0.98;;;;;;;;;;5053743;28;20538;-84
2021/09/27 02:15:17;;;;;;;2.53;1.10;;;;;;;;;;5064196;28;20089;-84
2021/09/27 02:18:25;;;;;;;2.40;1.20;;;;;;;;;;5052129;28;20092;-84
2021/09/27 02:21:12;;;;;;;1.80;0.90;;;;;;;;;;5062946;28;20054;-84
2021/09/27 02:23:58;;;;;;;1.98;1.23;;;;;;;;;;5048246;28;20039;-83
2021/09/27 02:26:44;;;;;;;3.17;1.20;;;;;;;;;;5054385;28;20129;-84
2021/09/27 02:29:28;;;;;;;1.83;1.33;;;;;;;;;;5040015;28;20417;-84
2021/09/27 02:32:16;;;;;;;1.38;0.85;;;;;;;;;;5049076;28;20056;-83
2021/09/27 02:35:03;;;;;;;1.30;0.80;;;;;;;;;;5052425;28;20039;-84
2021/09/27 02:37:50;;;;;;;1.60;0.80;;;;;;;;;;5063910;28;20107;-84
2021/09/27 02:40:38;;;;;;;1.95;0.80;;;;;;;;;;5062483;28;20068;-84
2021/09/27 02:43:24;;;;;;;1.70;0.77;;;;;;;;;;5052564;28;20091;-84
2021/09/27 02:46:09;;;;;;;2.13;0.88;;;;;;;;;;5062993;28;20091;-83
2021/09/27 02:49:10;;;;;;;2.38;0.80;;;;;;;;;;5054072;28;20131;-84
2021/09/27 02:51:56;;;;;;;1.27;0.80;;;;;;;;;;5066782;28;20039;-84
2021/09/27 02:54:42;;;;;;;2.25;0.93;;;;;;;;;;5048580;28;20414;-83
2021/09/27 02:57:30;;;;;;;1.10;0.80;;;;;;;;;;5048240;28;20575;-83
2021/09/27 03:00:17;;;;;;;3.08;0.90;;;;;;;;;;5052177;28;20512;-83
2021/09/27 03:03:06;;;;;;;2.17;0.70;;;;;;;;;;5049350;28;20740;-83
2021/09/27 03:05:58;;;;;;;1.75;1.10;;;;;;;;;;5053098;28;20065;-83
2021/09/27 03:09:02;;;;;;;1.20;0.77;;;;;;;;;;5056361;28;20409;-83
2021/09/27 03:11:52;;;;;;;1.90;0.98;;;;;;;;;;5049709;28;20047;-83
2021/09/27 03:14:43;;;;;;;2.40;1.00;;;;;;;;;;5048030;28;20074;-83
2021/09/27 03:17:48;;;;;;;2.22;0.90;;;;;;;;;;5048738;28;20417;-83
2021/09/27 03:20:41;;;;;;;2.17;0.90;;;;;;;;;;5047267;28;20117;-84
2021/09/27 03:23:28;;;;;;;2.70;1.00;;;;;;;;;;5056890;28;20109;-84
2021/09/27 03:26:25;;;;;;;2.10;0.82;;;;;;;;;;5063163;28;20035;-83
2021/09/27 03:29:45;;;;;;;2.35;0.80;;;;;;;;;;5065936;28;20697;-83
2021/09/27 03:32:30;;;;;;;1.58;0.80;;;;;;;;;;5047680;28;20043;-84
2021/09/27 03:35:27;;;;;;;1.58;0.90;;;;;;;;;;5048035;28;20055;-83
2021/09/27 03:38:35;;;;;;;2.25;0.70;;;;;;;;;;5047394;28;20159;-84
2021/09/27 03:41:20;;;;;;;2.67;0.90;;;;;;;;;;5048882;28;20052;-83
2021/09/27 03:44:11;;;;;;;1.20;0.68;;;;;;;;;;5048360;28;20853;-84
2021/09/27 03:47:03;;;;;;;2.70;0.85;;;;;;;;;;5051163;28;20059;-83
2021/09/27 03:49:49;;;;;;;1.90;1.00;;;;;;;;;;5046610;28;20066;-83
2021/09/27 03:52:52;;;;;;;1.65;0.60;;;;;;;;;;5047460;28;20048;-84
2021/09/27 03:55:49;;;;;;;1.15;0.60;;;;;;;;;;5046348;28;20059;-84
2021/09/27 03:58:45;;;;;;;1.85;0.75;;;;;;;;;;5079250;28;20048;-83
2021/09/27 04:01:36;;;;;;;1.45;0.77;;;;;;;;;;5050833;28;20047;-83
2021/09/27 04:04:30;;;;;;;2.95;0.95;;;;;;;;;;5052238;28;20094;-83
2021/09/27 04:07:24;;;;;;;1.98;1.00;;;;;;;;;;5053968;28;20047;-83
2021/09/27 04:10:17;;;;;;;1.35;0.77;;;;;;;;;;5051554;28;20040;-83
2021/09/27 04:13:08;;;;;;;1.77;0.80;;;;;;;;;;5055538;28;20044;-84
2021/09/27 04:16:00;;;;;;;1.90;0.93;;;;;;;;;;5046513;28;20040;-83
2021/09/27 04:19:03;;;;;;;1.38;0.80;;;;;;;;;;5046257;28;20047;-83
2021/09/27 04:21:59;;;;;;;1.67;0.80;;;;;;;;;;5064423;28;20052;-83
2021/09/27 04:24:49;;;;;;;1.77;0.88;;;;;;;;;;5052405;28;20072;-83
2021/09/27 04:27:52;;;;;;;1.20;0.77;;;;;;;;;;5046121;28;20091;-82
2021/09/27 04:30:39;;;;;;;2.38;0.80;;;;;;;;;;5050376;28;20098;-83
2021/09/27 04:33:27;;;;;;;1.95;0.88;;;;;;;;;;5052057;28;20079;-83
2021/09/27 04:36:31;;;;;;;1.40;0.60;;;;;;;;;;5065805;28;20128;-83
2021/09/27 04:39:17;;;;;;;1.60;0.90;;;;;;;;;;5065982;28;20119;-83
2021/09/27 04:42:08;;;;;;;2.22;0.85;;;;;;;;;;5050734;28;20048;-83
2021/09/27 04:45:11;;;;;;;1.50;0.70;;;;;;;;;;5046819;28;20428;-82
2021/09/27 04:48:02;;;;;;;1.83;1.10;;;;;;;;;;5052400;28;20447;-83
2021/09/27 04:51:25;;;;;;;2.40;0.75;;;;;;;;;;5063135;28;20133;-83
2021/09/27 04:54:10;;;;;;;1.55;0.65;;;;;;;;;;5040410;28;20275;-83
2021/09/27 04:57:00;;;;;;;1.88;0.80;;;;;;;;;;5027160;28;20040;-76
2021/09/27 04:59:57;;;;;;;1.48;0.73;;;;;;;;;;5027925;28;20079;-83
2021/09/27 05:02:42;;;;;;;0.98;0.77;;;;;;;;;;5049355;28;20125;-82
2021/09/27 05:05:41;;;;;;;1.67;0.80;;;;;;;;;;5054489;28;20147;-83
2021/09/27 05:08:35;;;;;;;1.77;0.90;;;;;;;;;;5043184;28;20085;-83
2021/09/27 05:11:26;;;;;;;0.95;0.70;;;;;;;;;;5044202;28;20044;-83
2021/09/27 05:14:16;;;;;;;2.17;0.88;;;;;;;;;;5072997;28;20044;-75
2021/09/27 05:17:07;;;;;;;3.90;1.02;;;;;;;;;;5045364;28;20044;-83
2021/09/27 05:19:55;;;;;;;2.75;1.00;;;;;;;;;;5050643;28;20546;-83
2021/09/27 05:22:39;;;;;;;1.20;0.80;;;;;;;;;;5062874;28;20098;-82
2021/09/27 05:25:24;;;;;;;2.50;0.90;;;;;;;;;;5061892;28;20090;-82
2021/09/27 05:28:11;;;;;;;1.48;0.93;;;;;;;;;;5047337;28;20072;-83
2021/09/27 05:31:02;;;;;;;1.80;1.00;;;;;;;;;;5045721;28;20036;-82
2021/09/27 05:33:47;;;;;;;0.90;0.68;;;;;;;;;;5049172;28;20047;-82
2021/09/27 05:36:31;;;;;;;1.92;0.90;;;;;;;;;;5063312;28;20075;-82
2021/09/27 05:39:37;;;;;;;1.85;0.95;;;;;;;;;;5059677;28;20448;-82
2021/09/27 05:42:29;;;;;;;1.75;0.98;;;;;;;;;;5048051;28;20175;-81
2021/09/27 05:45:17;;;;;;;2.67;1.05;;;;;;;;;;5061819;28;20060;-82
2021/09/27 05:48:07;;;;;;;1.55;0.88;;;;;;;;;;5083555;28;20071;-81
2021/09/27 05:50:56;;;;;;;1.67;1.00;;;;;;;;;;5053243;28;20441;-82
2021/09/27 05:53:47;;;;;;;2.17;0.80;;;;;;;;;;5046060;28;20083;-80
2021/09/27 05:56:50;;;;;;;1.83;0.90;;;;;;;;;;5057136;28;20043;-82
2021/09/27 05:59:46;;;;;;;2.25;1.00;;;;;;;;;;5059905;28;20118;-81
2021/09/27 06:02:41;;;;;;;0.85;0.75;;;;;;;;;;5058630;28;20193;-80
2021/09/27 06:05:44;;;;;;;3.80;1.10;;;;;;;;;;5066260;28;20421;-82
2021/09/27 06:08:32;;;;;;;2.42;0.90;;;;;;;;;;5058383;28;20043;-81
2021/09/27 06:11:22;;;;;;;1.23;0.80;;;;;;;;;;5047154;28;20040;-81
2021/09/27 06:14:06;;;;;;;1.73;1.05;;;;;;;;;;5062339;28;20093;-81
2021/09/27 06:17:02;;;;;;;1.60;1.00;;;;;;;;;;5054233;28;20087;-81
2021/09/27 06:20:05;;;;;;;1.48;0.70;;;;;;;;;;5059644;28;20531;-82
2021/09/27 06:22:54;;;;;;;1.40;0.80;;;;;;;;;;5046615;28;20067;-81
2021/09/27 06:25:51;;;;;;;5.15;1.00;;;;;;;;;;5064850;28;20066;-81
2021/09/27 06:28:47;;;;;;;2.67;0.90;;;;;;;;;;5063480;28;20211;-82
2021/09/27 06:31:32;;;;;;;1.00;0.77;;;;;;;;;;5079585;28;20051;-81
2021/09/27 06:34:16;;;;;;;1.38;0.88;;;;;;;;;;5051984;28;20105;-82
2021/09/27 06:37:01;;;;;;;1.58;0.85;;;;;;;;;;5058334;28;20043;-77
2021/09/27 06:39:45;;;;;;;1.30;0.80;;;;;;;;;;5046309;28;20051;-81
2021/09/27 06:42:30;;;;;;;1.80;0.90;;;;;;;;;;5066820;28;20046;-83
2021/09/27 06:45:15;;;;;;;1.50;0.93;;;;;;;;;;5067545;28;20543;-82
2021/09/27 06:47:59;;;;;;;1.77;0.93;;;;;;;;;;5050588;28;20085;-81
2021/09/27 06:50:43;;;;;;;1.52;0.80;;;;;;;;;;5050228;28;20258;-81
2021/09/27 06:53:30;;;;;;;1.42;0.85;;;;;;;;;;5049362;28;20504;-82
2021/09/27 06:56:15;;;;;;;1.60;1.00;;;;;;;;;;5046167;28;20043;-82
2021/09/27 06:58:59;;;;;;;3.28;1.20;;;;;;;;;;5065434;28;20044;-82
2021/09/27 07:01:45;;;;;;;1.92;0.90;;;;;;;;;;5051769;28;20095;-81
2021/09/27 07:04:30;;;;;;;1.17;0.80;;;;;;;;;;5046156;28;20497;-82
2021/09/27 07:07:15;;;;;;;2.78;0.95;;;;;;;;;;5054761;28;20102;-82
2021/09/27 07:10:00;;;;;;;1.73;0.73;;;;;;;;;;5071614;28;20042;-82
2021/09/27 07:12:44;;;;;;;2.88;0.80;;;;;;;;;;5053593;28;20047;-84
2021/09/27 07:15:29;;;;;;;2.40;0.95;;;;;;;;;;5051012;28;20558;-81
2021/09/27 07:18:14;;;;;;;2.83;0.90;;;;;;;;;;5052601;28;20123;-82
2021/09/27 07:20:59;;;;;;;2.40;0.90;;;;;;;;;;5050588;28;20134;-82
2021/09/27 07:23:44;;;;;;;3.75;1.10;;;;;;;;;;5062004;28;20048;-82
2021/09/27 07:26:29;;;;;;;2.88;1.20;;;;;;;;;;5050995;28;20044;-82
2021/09/27 07:29:13;;;;;;;2.15;0.90;;;;;;;;;;5045378;28;20074;-81
2021/09/27 07:31:57;;;;;;;1.52;1.00;;;;;;;;;;5044937;28;20044;-81
2021/09/27 07:34:42;;;;;;;2.17;1.05;;;;;;;;;;5073062;28;20071;-82
2021/09/27 07:37:26;;;;;;;1.02;0.70;;;;;;;;;;5047625;28;20040;-82
2021/09/27 07:40:13;;;;;;;2.72;0.98;;;;;;;;;;5063211;28;20078;-81
2021/09/27 07:42:57;;;;;;;1.77;0.75;;;;;;;;;;5045017;28;20481;-82
2021/09/27 07:45:42;;;;;;;2.85;1.05;;;;;;;;;;5044090;28;20067;-81
2021/09/27 07:48:27;;;;;;;2.17;0.90;;;;;;;;;;5046449;28;20052;-82
2021/09/27 07:51:11;;;;;;;1.52;0.73;;;;;;;;;;5054220;28;20048;-82
2021/09/27 07:53:56;;;;;;;1.60;0.75;;;;;;;;;;5037555;28;20065;-81
2021/09/27 07:56:41;;;;;;;1.58;0.75;;;;;;;;;;5061184;28;20035;-82
2021/09/27 07:59:25;;;;;;;1.95;0.85;;;;;;;;;;5045163;28;20109;-82
2021/09/27 08:02:10;;;;;;;2.05;1.02;;;;;;;;;;5084637;28;20056;-81
2021/09/27 08:04:54;;;;;;;1.60;0.80;;;;;;;;;;5058026;28;20044;-80
2021/09/27 08:07:38;;;;;;;1.77;0.73;;;;;;;;;;5062550;28;20075;-81
2021/09/27 08:10:23;;;;;;;1.15;0.80;;;;;;;;;;5062434;28;20574;-82
2021/09/27 08:13:08;;;;;;;1.80;1.00;;;;;;;;;;5058756;28;20067;-82
2021/09/27 08:15:53;;;;;;;1.90;0.90;;;;;;;;;;5058060;28;20500;-82
2021/09/27 08:18:38;;;;;;;1.10;0.70;;;;;;;;;;5064764;28;20032;-82
2021/09/27 08:21:23;;;;;;;2.15;1.00;;;;;;;;;;5047748;28;20402;-83
2021/09/27 08:24:07;;;;;;;1.10;0.70;;;;;;;;;;5072629;28;20136;-83
2021/09/27 08:26:52;;;;;;;3.15;1.10;;;;;;;;;;5044096;28;20067;-83
2021/09/27 08:29:36;;;;;;;2.38;0.93;;;;;;;;;;5050963;28;20055;-82
2021/09/27 08:32:21;;;;;;;2.58;0.70;;;;;;;;;;5060805;28;20043;-82
2021/09/27 08:35:06;;;;;;;1.80;0.82;;;;;;;;;;5043826;28;20052;-78
2021/09/27 08:37:51;;;;;;;3.47;1.00;;;;;;;;;;5055764;28;20066;-83
2021/09/27 08:40:54;;;;;;;2.30;0.77;;;;;;;;;;5043612;28;20126;-82
2021/09/27 08:43:38;;;;;;;2.35;0.82;;;;;;;;;;5060575;28;20055;-82
2021/09/27 08:46:23;;;;;;;1.25;0.70;;;;;;;;;;5056490;28;20047;-83
2021/09/27 08:49:14;;;;;;;3.10;0.85;;;;;;;;;;5054533;28;20112;-81
2021/09/27 08:51:59;;;;;;;2.77;0.90;;;;;;;;;;5044260;28;20044;-82
2021/09/27 08:54:44;;;;;;;3.30;0.85;;;;;;;;;;5045582;28;20075;-81
2021/09/27 08:57:35;;;;;;;1.27;0.88;;;;;;;;;;5043809;28;20079;-81
2021/09/27 09:00:40;;;;;;;2.47;0.80;;;;;;;;;;5076115;28;20133;-79
2021/09/27 09:03:26;;;;;;;2.20;0.80;;;;;;;;;;5065272;28;20051;-83
2021/09/27 09:06:20;;;;;;;2.22;0.77;;;;;;;;;;5048061;28;20047;-83
2021/09/27 09:09:06;;;;;;;2.78;0.80;;;;;;;;;;5052662;28;20103;-78
2021/09/27 09:11:51;;;;;;;2.08;0.73;;;;;;;;;;5048877;28;20128;-83
2021/09/27 09:14:41;;;;;;;2.75;0.80;;;;;;;;;;5057982;28;20047;-83
2021/09/27 09:17:38;;;;;;;2.22;0.80;;;;;;;;;;5044749;28;20036;-82
2021/09/27 09:20:24;;;;;;;2.42;1.00;;;;;;;;;;5051777;28;20086;-76
2021/09/27 09:23:08;;;;;;;2.30;0.80;;;;;;;;;;5059563;28;20169;-83
2021/09/27 09:25:53;;;;;;;2.28;0.95;;;;;;;;;;5053763;28;20076;-82
2021/09/27 09:28:37;;;;;;;2.88;0.95;;;;;;;;;;5060942;28;20044;-83
2021/09/27 09:31:33;;;;;;;3.53;1.20;;;;;;;;;;5056466;28;20046;-82
2021/09/27 09:34:18;;;;;;;1.95;0.85;;;;;;;;;;5060617;28;20195;-82
2021/09/27 09:37:08;;;;;;;2.35;0.80;;;;;;;;;;5043812;28;20452;-81
2021/09/27 09:39:55;;;;;;;3.63;0.90;;;;;;;;;;5045881;28;20039;-81
2021/09/27 09:42:40;;;;;;;2.38;0.80;;;;;;;;;;5062300;28;20791;-81
2021/09/27 09:45:26;;;;;;;2.05;0.95;;;;;;;;;;5063810;28;20048;-79
2021/09/27 09:48:12;;;;;;;2.35;0.98;;;;;;;;;;5044143;28;20040;-80
2021/09/27 09:50:57;;;;;;;2.88;0.90;;;;;;;;;;5056950;28;20472;-81
2021/09/27 09:53:42;;;;;;;2.83;0.90;;;;;;;;;;5061723;28;20554;-80
2021/09/27 09:56:30;;;;;;;1.58;0.80;;;;;;;;;;5059160;28;20082;-81
2021/09/27 09:59:22;;;;;;;1.67;0.70;;;;;;;;;;5060117;28;20052;-80
2021/09/27 10:02:17;;;;;;;2.38;0.90;;;;;;;;;;5066628;28;20051;-76
2021/09/27 10:05:07;;;;;;;2.58;0.80;;;;;;;;;;5061047;28;20532;-81
2021/09/27 10:07:54;;;;;;;2.25;0.80;;;;;;;;;;5052234;28;20065;-81
2021/09/27 10:10:39;;;;;;;1.65;0.77;;;;;;;;;;5060503;28;20058;-77
2021/09/27 10:13:54;;;;;;;2.22;0.73;;;;;;;;;;5044473;28;20040;-81
2021/09/27 10:16:50;;;;;;;2.83;0.90;;;;;;;;;;5050941;28;20162;-81
2021/09/27 10:19:40;;;;;;;4.18;1.00;;;;;;;;;;5063712;28;20459;-81
2021/09/27 10:22:27;;;;;;;2.45;0.80;;;;;;;;;;5055318;28;20106;-82
2021/09/27 10:25:27;;;;;;;2.05;0.80;;;;;;;;;;5079582;28;20505;-82
2021/09/27 10:28:13;;;;;;;2.42;0.90;;;;;;;;;;5049070;28;20124;-81
2021/09/27 10:30:58;;;;;;;3.10;0.85;;;;;;;;;;5065289;28;20038;-82
2021/09/27 10:33:44;;;;;;;3.08;0.80;;;;;;;;;;5077181;28;20691;-81
2021/09/27 10:36:45;;;;;;;2.17;0.95;;;;;;;;;;5066598;28;20206;-82
2021/09/27 10:39:30;;;;;;;2.47;0.73;;;;;;;;;;5046192;28;20040;-75
2021/09/27 10:42:16;;;;;;;2.60;0.80;;;;;;;;;;5047422;28;20795;-82
2021/09/27 10:45:01;;;;;;;3.35;0.95;;;;;;;;;;5047814;28;20647;-78
2021/09/27 10:47:47;;;;;;;1.48;0.80;;;;;;;;;;5047050;28;20052;-82
2021/09/27 10:50:33;;;;;;;2.40;0.60;;;;;;;;;;5046133;28;20044;-81
2021/09/27 10:53:27;;;;;;;2.70;0.88;;;;;;;;;;5049123;28;20071;-81
2021/09/27 10:56:17;;;;;;;2.17;0.77;;;;;;;;;;5066730;28;20048;-82
2021/09/27 10:59:04;;;;;;;3.15;0.90;;;;;;;;;;5051994;28;20439;-79
2021/09/27 11:01:56;;;;;;;2.75;0.70;;;;;;;;;;5063359;28;20132;-81
2021/09/27 11:04:42;;;;;;;3.60;1.13;;;;;;;;;;5063295;28;20067;-81
2021/09/27 11:07:41;;;;;;;3.80;0.90;;;;;;;;;;5057553;28;20043;-81
2021/09/27 11:10:30;;;;;;;2.85;1.05;;;;;;;;;;5059733;28;20523;-82
2021/09/27 11:13:33;;;;;;;5.43;1.33;;;;;;;;;;5049656;28;20520;-77
2021/09/27 11:16:19;;;;;;;7.32;1.20;;;;;;;;;;5051536;28;20055;-78
2021/09/27 11:19:26;;;;;;;2.30;0.90;;;;;;;;;;5064081;28;20059;-78
2021/09/27 11:22:14;;;;;;;3.00;0.80;;;;;;;;;;5062199;28;20101;-78
2021/09/27 11:25:07;;;;;;;2.92;0.95;;;;;;;;;;5066400;28;20090;-78
2021/09/27 11:28:04;;;;;;;3.95;1.00;;;;;;;;;;5064058;28;20043;-76
2021/09/27 11:31:08;;;;;;;3.65;1.02;;;;;;;;;;5065097;28;20047;-76
2021/09/27 11:33:53;;;;;;;2.92;1.10;;;;;;;;;;5059871;28;20038;-77
2021/09/27 11:36:41;;;;;;;3.97;1.20;;;;;;;;;;5065136;28;20039;-77
2021/09/27 11:39:49;;;;;;;2.08;0.80;;;;;;;;;;5065856;28;20054;-78
2021/09/27 11:42:35;;;;;;;1.88;0.93;;;;;;;;;;5065321;28;20151;-77
2021/09/27 11:45:34;;;;;;;1.65;0.85;;;;;;;;;;5044829;28;20063;-77
2021/09/27 11:48:19;;;;;;;3.60;1.00;;;;;;;;;;5053446;28;20035;-77
2021/09/27 11:51:06;;;;;;;2.17;1.05;;;;;;;;;;5066451;28;20059;-79
2021/09/27 11:54:02;;;;;;;2.40;1.17;;;;;;;;;;5063971;28;20112;-73
2021/09/27 11:56:56;;;;;;;3.80;0.98;;;;;;;;;;5060141;28;20064;-72
2021/09/27 11:59:41;;;;;;;5.35;1.08;;;;;;;;;;5045950;28;20130;-73
2021/09/27 12:02:40;;;;;;;1.60;0.90;;;;;;;;;;5062044;28;20195;-73
2021/09/27 12:05:40;;;;;;;4.10;1.23;;;;;;;;;;5058462;28;20039;-73
2021/09/27 12:08:28;;;;;;;2.92;1.27;;;;;;;;;;5066396;28;20098;-73
2021/09/27 12:11:13;;;;;;;2.38;0.98;;;;;;;;;;5062960;28;20039;-73
2021/09/27 12:14:00;;;;;;;2.95;1.30;;;;;;;;;;5062386;28;20086;-79
2021/09/27 12:16:47;;;;;;;3.47;0.90;;;;;;;;;;5063074;28;20504;-76
2021/09/27 12:19:36;;;;;;;3.15;0.90;;;;;;;;;;5057796;28;20105;-75
2021/09/27 12:22:31;;;;;;;4.38;1.10;;;;;;;;;;5064018;28;20055;-75
2021/09/27 12:25:19;;;;;;;3.42;1.35;;;;;;;;;;5055764;28;20085;-74
2021/09/27 12:28:05;;;;;;;2.42;0.98;;;;;;;;;;5059194;28;20040;-74
2021/09/27 12:30:54;;;;;;;3.72;1.10;;;;;;;;;;5061617;28;20047;-74
2021/09/27 12:33:40;;;;;;;4.20;1.20;;;;;;;;;;5059431;28;20039;-73
2021/09/27 12:36:25;;;;;;;4.32;1.05;;;;;;;;;;5062439;28;20039;-75
2021/09/27 12:39:09;;;;;;;6.70;1.23;;;;;;;;;;5070391;28;20609;-75
2021/09/27 12:41:55;;;;;;;4.60;1.20;;;;;;;;;;5067285;28;20497;-76
2021/09/27 12:44:44;;;;;;;4.30;1.10;;;;;;;;;;5070133;28;20476;-74
2021/09/27 12:47:29;;;;;;;3.58;0.98;;;;;;;;;;5064368;28;20035;-76
2021/09/27 12:50:15;;;;;;;3.13;1.00;;;;;;;;;;5063492;28;20052;-75
2021/09/27 12:53:07;;;;;;;4.25;1.23;;;;;;;;;;5076203;28;20043;-75
2021/09/27 12:55:53;;;;;;;2.58;0.98;;;;;;;;;;5083932;28;20520;-75
2021/09/27 12:58:39;;;;;;;5.13;1.20;;;;;;;;;;5063338;28;20071;-75
2021/09/27 13:01:24;;;;;;;3.55;1.10;;;;;;;;;;5061481;28;20473;-76
2021/09/27 13:04:09;;;;;;;2.75;1.00;;;;;;;;;;5054080;28;20074;-75
2021/09/27 13:06:54;;;;;;;4.65;1.35;;;;;;;;;;5064896;28;20042;-76
2021/09/27 13:09:59;;;;;;;4.10;1.20;;;;;;;;;;5030234;28;20068;-76
2021/09/27 13:12:56;;;;;;;4.30;1.00;;;;;;;;;;5074613;28;20038;-75
2021/09/27 13:15:43;;;;;;;3.80;1.10;;;;;;;;;;5083400;28;20044;-76
2021/09/27 13:18:33;;;;;;;3.70;0.90;;;;;;;;;;5060754;28;20023;-76
2021/09/27 13:21:26;;;;;;;3.58;1.00;;;;;;;;;;5084620;28;20110;-77
2021/09/27 13:24:13;;;;;;;3.75;1.17;;;;;;;;;;5029543;28;20052;-76
2021/09/27 13:27:04;;;;;;;2.88;0.90;;;;;;;;;;5053354;28;20055;-76
2021/09/27 13:29:50;;;;;;;2.45;1.05;;;;;;;;;;5077869;28;20182;-76
2021/09/27 13:32:35;;;;;;;1.77;0.93;;;;;;;;;;5080123;28;20093;-76
2021/09/27 13:35:21;;;;;;;3.45;0.98;;;;;;;;;;5081047;28;20047;-77
2021/09/27 13:38:09;;;;;;;2.80;1.00;;;;;;;;;;5067146;28;20465;-75
2021/09/27 13:41:12;;;;;;;2.58;1.00;;;;;;;;;;5068574;28;20073;-76
2021/09/27 13:43:57;;;;;;;4.55;1.08;;;;;;;;;;5070859;28;20066;-76
2021/09/27 13:46:42;;;;;;;2.58;1.08;;;;;;;;;;5067270;28;20523;-76
2021/09/27 13:49:26;;;;;;;2.63;1.15;;;;;;;;;;5043714;28;20075;-75
2021/09/27 13:52:11;;;;;;;3.55;1.25;;;;;;;;;;5057031;28;20551;-75
2021/09/27 13:54:56;;;;;;;2.97;1.05;;;;;;;;;;5086059;28;20054;-75
2021/09/27 13:57:40;;;;;;;2.35;1.00;;;;;;;;;;5068198;28;20039;-76
2021/09/27 14:00:25;;;;;;;4.40;1.20;;;;;;;;;;5074268;28;20043;-76
2021/09/27 14:03:09;;;;;;;2.70;1.10;;;;;;;;;;5063063;28;20077;-76
2021/09/27 14:05:54;;;;;;;2.72;1.08;;;;;;;;;;5067117;28;20043;-76
2021/09/27 14:08:38;;;;;;;2.72;1.05;;;;;;;;;;5044020;28;20043;-76
2021/09/27 14:11:23;;;;;;;3.00;1.10;;;;;;;;;;5071733;28;20071;-76
2021/09/27 14:14:08;;;;;;;2.50;0.90;;;;;;;;;;5085248;28;20586;-75
2021/09/27 14:16:52;;;;;;;3.58;1.35;;;;;;;;;;5065852;28;20094;-76
2021/09/27 14:19:37;;;;;;;2.13;1.00;;;;;;;;;;5066075;28;20090;-76
2021/09/27 14:22:21;;;;;;;2.95;0.85;;;;;;;;;;5065437;28;20153;-77
2021/09/27 14:25:06;;;;;;;4.28;0.98;;;;;;;;;;5064617;28;20043;-76
2021/09/27 14:27:51;;;;;;;2.72;1.00;;;;;;;;;;5056409;28;20039;-75
2021/09/27 14:30:35;;;;;;;2.38;1.05;;;;;;;;;;5071238;28;20046;-76
2021/09/27 14:33:22;;;;;;;3.53;1.02;;;;;;;;;;5069218;28;20832;-76
2021/09/27 14:36:07;;;;;;;1.45;0.73;;;;;;;;;;5065700;28;20125;-76
2021/09/27 14:38:52;;;;;;;3.47;0.98;;;;;;;;;;5083019;28;20038;-76
2021/09/27 14:41:37;;;;;;;2.42;1.10;;;;;;;;;;5066525;28;20416;-76
2021/09/27 14:44:21;;;;;;;2.40;1.00;;;;;;;;;;5051863;28;20046;-77
2021/09/27 14:47:05;;;;;;;2.15;0.90;;;;;;;;;;5064733;28;20559;-75
2021/09/27 14:49:51;;;;;;;2.33;0.90;;;;;;;;;;5065908;28;20671;-75
2021/09/27 14:52:35;;;;;;;2.20;0.80;;;;;;;;;;5064543;28;20554;-76
2021/09/27 14:55:20;;;;;;;2.58;1.00;;;;;;;;;;5083489;28;20167;-76
2021/09/27 14:58:08;;;;;;;2.65;1.10;;;;;;;;;;5071554;28;20093;-75
2021/09/27 15:00:53;;;;;;;1.90;1.00;;;;;;;;;;5051068;28;20085;-76
2021/09/27 15:03:38;;;;;;;1.33;0.82;;;;;;;;;;5072607;28;20127;-77
2021/09/27 15:06:24;;;;;;;2.05;0.80;;;;;;;;;;5057420;28;20063;-76
2021/09/27 15:09:09;;;;;;;2.90;0.93;;;;;;;;;;5071359;28;20085;-76
2021/09/27 15:11:53;;;;;;;2.65;0.90;;;;;;;;;;5080968;28;20098;-76
2021/09/27 15:14:38;;;;;;;1.80;0.90;;;;;;;;;;5065249;28;20086;-76
2021/09/27 15:17:22;;;;;;;2.45;1.00;;;;;;;;;;5072774;28;20062;-76
2021/09/27 15:20:08;;;;;;;1.55;0.88;;;;;;;;;;5066757;28;20090;-75
2021/09/27 15:22:55;;;;;;;1.55;1.00;;;;;;;;;;5076108;28;20417;-76
2021/09/27 15:25:59;;;;;;;2.20;1.10;;;;;;;;;;5085266;28;20043;-76
2021/09/27 15:28:44;;;;;;;2.63;1.00;;;;;;;;;;5080804;28;20089;-76
2021/09/27 15:31:29;;;;;;;2.97;1.40;;;;;;;;;;5062832;28;20066;-76
2021/09/27 15:34:14;;;;;;;2.53;1.20;;;;;;;;;;5064250;28;20039;-76
2021/09/27 15:37:00;;;;;;;3.58;1.20;;;;;;;;;;5066532;28;20092;-75
2021/09/27 15:39:45;;;;;;;3.05;1.30;;;;;;;;;;5068827;28;20039;-76
2021/09/27 15:42:30;;;;;;;3.85;1.50;;;;;;;;;;5057037;28;20536;-76
2021/09/27 15:45:15;;;;;;;1.98;1.30;;;;;;;;;;5050085;28;20122;-74
2021/09/27 15:48:00;;;;;;;2.75;1.20;;;;;;;;;;5050167;28;20104;-76
2021/09/27 15:50:48;;;;;;;3.80;1.80;;;;;;;;;;5066270;28;20031;-76
2021/09/27 15:53:32;;;;;;;3.72;1.70;;;;;;;;;;5064519;28;20082;-76
2021/09/27 15:56:17;;;;;;;3.38;1.75;;;;;;;;;;5057342;28;20074;-76
2021/09/27 15:59:01;;;;;;;3.53;1.52;;;;;;;;;;5083563;28;20063;-76
2021/09/27 16:01:48;;;;;;;3.45;1.60;;;;;;;;;;5072578;28;20095;-75
2021/09/27 16:04:34;;;;;;;3.75;1.60;;;;;;;;;;5070853;28;20502;-76
2021/09/27 16:07:19;;;;;;;4.90;1.80;;;;;;;;;;5078753;28;20085;-76
2021/09/27 16:10:04;;;;;;;3.47;1.67;;;;;;;;;;5061657;28;20031;-75
2021/09/27 16:12:49;;;;;;;3.83;1.92;;;;;;;;;;5055038;28;20097;-76
2021/09/27 16:15:35;;;;;;;3.78;1.55;;;;;;;;;;5045055;28;20142;-76
2021/09/27 16:18:20;;;;;;;3.50;1.50;;;;;;;;;;5049789;28;20654;-76
2021/09/27 16:21:05;;;;;;;4.38;1.52;;;;;;;;;;5064026;28;20055;-76
2021/09/27 16:23:50;;;;;;;3.75;1.75;;;;;;;;;;5073698;28;20277;-75
2021/09/27 16:26:38;;;;;;;2.83;1.55;;;;;;;;;;5062618;28;20102;-76
2021/09/27 16:29:24;;;;;;;3.83;1.67;;;;;;;;;;5044209;28;20063;-76
2021/09/27 16:32:09;;;;;;;2.95;1.60;;;;;;;;;;5056590;28;20042;-76
2021/09/27 16:34:53;;;;;;;3.05;1.90;;;;;;;;;;5081412;28;20050;-76
2021/09/27 16:37:38;;;;;;;3.30;1.80;;;;;;;;;;5063985;28;20031;-76
2021/09/27 16:40:23;;;;;;;4.43;1.98;;;;;;;;;;5062370;28;20043;-76
2021/09/27 16:43:07;;;;;;;5.15;2.22;;;;;;;;;;5058377;28;20139;-76
2021/09/27 16:45:52;;;;;;;2.83;1.60;;;;;;;;;;5076942;28;20036;-75
2021/09/27 16:48:36;;;;;;;3.22;1.83;;;;;;;;;;5078740;28;20118;-76
2021/09/27 16:51:21;;;;;;;4.72;2.15;;;;;;;;;;5068484;28;20081;-76